createdAt,value
2023-11-21T00:00:44.064Z,13.47
2023-11-21T00:03:46.348Z,11.30
2023-11-21T00:06:48.647Z,14.88
2023-11-21T00:09:50.894Z,13.00
2023-11-21T00:12:56.418Z,13.50
2023-11-21T00:15:59.107Z,11.97
2023-11-21T00:19:01.420Z,16.30
2023-11-21T00:22:03.689Z,10.88
2023-11-21T00:25:06.145Z,13.13
2023-11-21T00:28:08.405Z,12.17
2023-11-21T00:31:10.602Z,17.00
2023-11-21T00:34:13.451Z,14.43
2023-11-21T00:37:15.812Z,13.10
2023-11-21T00:40:22.417Z,11.18
2023-11-21T00:43:25.610Z,20.40
2023-11-21T00:46:31.073Z,12.87
2023-11-21T00:49:33.604Z,12.55
2023-11-21T00:52:35.964Z,16.95
2023-11-21T00:55:40.837Z,17.13
2023-11-21T00:58:50.935Z,11.60
2023-11-21T01:01:54.484Z,13.10
2023-11-21T01:04:56.708Z,12.65
2023-11-21T01:07:58.903Z,12.68
2023-11-21T01:11:01.191Z,10.75
2023-11-21T01:14:04.707Z,14.67
2023-11-21T01:17:07.671Z,16.40
2023-11-21T01:20:13.657Z,13.10
2023-11-21T01:23:16.219Z,15.43
2023-11-21T01:26:18.522Z,14.70
2023-11-21T01:29:21.206Z,14.53
2023-11-21T01:32:23.500Z,10.30
2023-11-21T01:35:25.794Z,14.07
2023-11-21T01:38:29.087Z,10.23
2023-11-21T01:41:31.961Z,12.27
2023-11-21T01:44:34.583Z,8.30
2023-11-21T01:47:37.621Z,11.43
2023-11-21T01:50:39.974Z,13.43
2023-11-21T01:53:42.566Z,12.52
2023-11-21T01:56:49.116Z,10.70
2023-11-21T01:59:52.620Z,12.67
2023-11-21T02:02:55.217Z,12.60
2023-11-21T02:05:57.599Z,10.68
2023-11-21T02:09:00.865Z,17.10
2023-11-21T02:12:03.627Z,11.93
2023-11-21T02:15:10.628Z,12.20
2023-11-21T02:18:13.248Z,13.27
2023-11-21T02:21:15.810Z,9.55
2023-11-21T02:24:22.776Z,7.97
2023-11-21T02:27:25.289Z,7.88
2023-11-21T02:30:29.435Z,11.43
2023-11-21T02:33:35.119Z,13.43
2023-11-21T02:36:38.300Z,12.30
2023-11-21T02:39:41.494Z,13.40
2023-11-21T02:42:43.815Z,12.32
2023-11-21T02:45:46.047Z,9.73
2023-11-21T02:48:48.698Z,11.03
2023-11-21T02:51:50.872Z,15.30
2023-11-21T02:54:53.178Z,13.68
2023-11-21T02:57:57.756Z,15.77
2023-11-21T03:01:00.193Z,16.47
2023-11-21T03:04:03.519Z,12.73
2023-11-21T03:07:06.646Z,18.30
2023-11-21T03:10:12.541Z,12.30
2023-11-21T03:13:14.966Z,17.60
2023-11-21T03:16:17.657Z,16.10
2023-11-21T03:19:20.046Z,14.60
2023-11-21T03:22:22.296Z,13.98
2023-11-21T03:25:25.638Z,13.15
2023-11-21T03:28:29.031Z,16.33
2023-11-21T03:31:31.516Z,20.13
2023-11-21T03:34:33.859Z,18.73
2023-11-21T03:37:36.835Z,14.65
2023-11-21T03:40:41.294Z,9.38
2023-11-21T03:43:43.779Z,13.30
2023-11-21T03:46:48.982Z,13.37
2023-11-21T03:49:51.345Z,13.27
2023-11-21T03:52:53.668Z,14.48
2023-11-21T03:55:55.930Z,16.55
2023-11-21T03:58:58.433Z,13.52
2023-11-21T04:02:00.635Z,15.93
2023-11-21T04:05:03.007Z,14.20
2023-11-21T04:08:05.473Z,13.82
2023-11-21T04:11:07.683Z,17.30
2023-11-21T04:14:10.234Z,11.20
2023-11-21T04:17:12.720Z,11.57
2023-11-21T04:20:15.860Z,24.73
2023-11-21T04:23:18.120Z,11.10
2023-11-21T04:26:20.325Z,12.85
2023-11-21T04:29:22.552Z,14.27
2023-11-21T04:32:24.731Z,18.30
2023-11-21T04:35:26.980Z,13.33
2023-11-21T04:38:29.169Z,17.23
2023-11-21T04:41:32.898Z,15.10
2023-11-21T04:44:35.342Z,16.90
2023-11-21T04:47:37.696Z,17.60
2023-11-21T04:50:39.950Z,16.23
2023-11-21T04:53:42.208Z,17.83
2023-11-21T04:56:44.476Z,14.13
2023-11-21T04:59:46.860Z,13.40
2023-11-21T05:02:49.278Z,17.47
2023-11-21T05:05:51.716Z,13.03
2023-11-21T05:08:54.205Z,20.05
2023-11-21T05:11:56.404Z,17.17
2023-11-21T05:14:59.530Z,15.05
2023-11-21T05:18:01.819Z,17.37
2023-11-21T05:21:04.089Z,16.77
2023-11-21T05:24:06.665Z,14.80
2023-11-21T05:27:10.821Z,13.25
2023-11-21T05:30:15.434Z,16.77
2023-11-21T05:33:17.991Z,14.20
2023-11-21T05:36:20.248Z,17.00
2023-11-21T05:39:22.924Z,17.77
2023-11-21T05:42:25.168Z,14.98
2023-11-21T05:45:27.532Z,16.02
2023-11-21T05:48:29.764Z,10.37
2023-11-21T05:51:32.043Z,12.37
2023-11-21T05:54:34.511Z,18.63
2023-11-21T05:57:40.294Z,21.80
2023-11-21T06:00:42.825Z,16.17
2023-11-21T06:03:45.189Z,16.37
2023-11-21T06:06:47.475Z,17.53
2023-11-21T06:09:51.349Z,12.45
2023-11-21T06:12:54.441Z,13.57
2023-11-21T06:15:57.026Z,15.18
2023-11-21T06:18:59.286Z,14.33
2023-11-21T06:22:02.628Z,13.87
2023-11-21T06:25:06.351Z,18.20
2023-11-21T06:28:08.663Z,14.95
2023-11-21T06:31:11.994Z,19.13
2023-11-21T06:34:14.942Z,15.33
2023-11-21T06:37:18.047Z,19.60
2023-11-21T06:40:24.124Z,12.82
2023-11-21T06:43:33.452Z,13.38
2023-11-21T06:46:44.241Z,17.00
2023-11-21T06:49:49.851Z,14.70
2023-11-21T06:52:52.703Z,20.73
2023-11-21T06:55:56.647Z,16.02
2023-11-21T06:58:59.360Z,16.98
2023-11-21T07:02:01.844Z,15.38
2023-11-21T07:05:04.808Z,13.47
2023-11-21T07:08:08.800Z,13.30
2023-11-21T07:11:11.241Z,13.32
2023-11-21T07:14:15.317Z,13.65
2023-11-21T07:17:18.959Z,14.32
2023-11-21T07:20:21.258Z,10.43
2023-11-21T07:23:23.998Z,10.27
2023-11-21T07:26:27.250Z,11.55
2023-11-21T07:29:31.149Z,17.20
2023-11-21T07:32:33.897Z,14.70
2023-11-21T07:35:37.854Z,14.97
2023-11-21T07:38:41.108Z,11.43
2023-11-21T07:41:49.939Z,14.30
2023-11-21T07:44:53.213Z,12.15
2023-11-21T07:47:56.498Z,15.63
2023-11-21T07:51:02.074Z,15.07
2023-11-21T07:54:06.841Z,12.87
2023-11-21T07:57:09.863Z,14.15
2023-11-21T08:00:13.565Z,11.00
2023-11-21T08:03:16.148Z,11.55
2023-11-21T08:06:18.572Z,10.80
2023-11-21T08:09:21.078Z,16.57
2023-11-21T08:12:23.547Z,13.40
2023-11-21T08:15:26.284Z,17.13
2023-11-21T08:18:28.823Z,11.07
2023-11-21T08:21:31.175Z,12.13
2023-11-21T08:24:33.498Z,9.73
2023-11-21T08:27:38.712Z,10.65
2023-11-21T08:30:43.158Z,17.33
2023-11-21T08:33:45.477Z,14.25
2023-11-21T08:36:47.809Z,16.17
2023-11-21T08:39:50.133Z,13.77
2023-11-21T08:42:53.781Z,14.13
2023-11-21T08:45:56.139Z,16.63
2023-11-21T08:48:59.088Z,15.18
2023-11-21T08:52:01.487Z,17.38
2023-11-21T08:55:09.063Z,15.13
2023-11-21T08:58:13.437Z,17.23
2023-11-21T09:01:17.396Z,16.05
2023-11-21T09:04:20.090Z,15.63
2023-11-21T09:07:22.485Z,15.80
2023-11-21T09:10:26.798Z,19.03
2023-11-21T09:13:29.289Z,16.33
2023-11-21T09:16:35.961Z,19.63
2023-11-21T09:19:38.845Z,15.10
2023-11-21T09:22:41.579Z,13.82
2023-11-21T09:25:47.382Z,16.97
2023-11-21T09:28:49.871Z,15.90
2023-11-21T09:31:56.072Z,11.30
2023-11-21T09:34:59.890Z,13.48
2023-11-21T09:38:06.831Z,13.90
2023-11-21T09:41:18.494Z,12.67
2023-11-21T09:44:24.915Z,17.13
2023-11-21T09:47:27.264Z,14.65
2023-11-21T09:50:29.783Z,20.10
2023-11-21T09:53:33.153Z,15.98
2023-11-21T09:56:36.619Z,21.93
2023-11-21T09:59:39.431Z,22.00
2023-11-21T10:02:42.163Z,25.55
2023-11-21T10:05:45.579Z,23.88
2023-11-21T10:08:53.752Z,19.67
2023-11-21T10:11:59.617Z,25.93
2023-11-21T10:15:03.950Z,23.98
2023-11-21T10:18:08.317Z,25.05
2023-11-21T10:21:10.772Z,27.23
2023-11-21T10:24:19.798Z,25.35
2023-11-21T10:27:26.115Z,23.60
2023-11-21T10:30:34.525Z,24.95
2023-11-21T10:33:36.932Z,33.05
2023-11-21T10:36:40.980Z,23.80
2023-11-21T10:39:45.435Z,20.43
2023-11-21T10:42:50.592Z,26.37
2023-11-21T10:45:58.923Z,27.73
2023-11-21T10:49:04.177Z,27.33
2023-11-21T10:52:10.302Z,26.73
2023-11-21T10:55:29.646Z,24.90
2023-11-21T10:58:51.740Z,22.70
2023-11-21T11:01:56.009Z,21.00
2023-11-21T11:05:01.829Z,12.30
2023-11-21T11:08:06.397Z,13.35
2023-11-21T11:11:12.901Z,18.83
2023-11-21T11:14:16.175Z,14.57
2023-11-21T11:17:21.872Z,18.42
2023-11-21T11:20:26.322Z,14.35
2023-11-21T11:23:36.213Z,12.40
2023-11-21T11:26:41.549Z,16.33
2023-11-21T11:29:57.398Z,14.57
2023-11-21T11:32:59.928Z,10.88
2023-11-21T11:36:09.119Z,11.65
2023-11-21T11:39:31.353Z,13.93
2023-11-21T11:42:33.725Z,11.82
2023-11-21T11:45:36.893Z,9.93
2023-11-21T11:48:40.975Z,12.65
2023-11-21T11:51:43.573Z,12.30
2023-11-21T11:54:55.433Z,14.35
2023-11-21T11:58:04.267Z,14.68
2023-11-21T12:01:13.101Z,11.10
2023-11-21T12:04:15.891Z,10.30
2023-11-21T12:07:18.765Z,9.80
2023-11-21T12:10:25.976Z,12.82
2023-11-21T12:13:29.964Z,11.32
2023-11-21T12:16:34.004Z,9.27
2023-11-21T12:19:38.140Z,10.48
2023-11-21T12:22:45.831Z,12.65
2023-11-21T12:25:49.929Z,11.73
2023-11-21T12:29:02.082Z,13.55
2023-11-21T12:32:06.144Z,11.07
2023-11-21T12:35:17.810Z,8.75
2023-11-21T12:38:20.994Z,12.70
2023-11-21T12:41:23.461Z,11.13
2023-11-21T12:44:26.131Z,11.10
2023-11-21T12:47:28.464Z,8.90
2023-11-21T12:50:35.024Z,10.65
2023-11-21T12:53:39.655Z,10.30
2023-11-21T12:56:42.177Z,12.80
2023-11-21T12:59:47.797Z,13.77
2023-11-21T13:02:58.418Z,12.23
2023-11-21T13:06:03.820Z,11.98
2023-11-21T13:09:06.637Z,12.32
2023-11-21T13:12:11.478Z,14.38
2023-11-21T13:15:19.494Z,12.52
2023-11-21T13:18:23.189Z,10.80
2023-11-21T13:21:25.627Z,10.75
2023-11-21T13:24:27.970Z,11.52
2023-11-21T13:27:31.252Z,11.38
2023-11-21T13:30:36.567Z,11.68
2023-11-21T13:33:40.174Z,11.57
2023-11-21T13:36:43.680Z,10.05
2023-11-21T13:39:52.366Z,13.68
2023-11-21T13:42:56.159Z,13.02
2023-11-21T13:46:05.130Z,13.30
2023-11-21T13:49:11.683Z,11.20
2023-11-21T13:52:17.665Z,12.32
2023-11-21T13:55:20.410Z,15.90
2023-11-21T13:58:41.215Z,14.10
2023-11-21T14:02:14.099Z,14.38
2023-11-21T14:05:22.526Z,13.07
2023-11-21T14:08:29.691Z,16.42
2023-11-21T14:11:36.208Z,13.73
2023-11-21T14:14:42.172Z,12.23
2023-11-21T14:17:44.443Z,12.60
2023-11-21T14:20:46.853Z,13.03
2023-11-21T14:23:49.559Z,13.23
2023-11-21T14:26:52.282Z,15.18
2023-11-21T14:29:54.620Z,17.95
2023-11-21T14:32:57.408Z,14.80
2023-11-21T14:36:00.140Z,12.17
2023-11-21T14:39:02.592Z,13.45
2023-11-21T14:42:05.781Z,16.60
2023-11-21T14:45:09.276Z,13.23
2023-11-21T14:48:17.913Z,14.23
2023-11-21T14:51:31.767Z,14.23
2023-11-21T14:54:47.003Z,12.98
2023-11-21T14:57:52.327Z,19.33
2023-11-21T15:00:59.209Z,13.57
2023-11-21T15:04:02.017Z,13.38
2023-11-21T15:07:05.471Z,13.83
2023-11-21T15:10:12.243Z,18.13
2023-11-21T15:13:16.283Z,18.38
2023-11-21T15:16:19.658Z,13.85
2023-11-21T15:19:27.290Z,18.23
2023-11-21T15:22:30.935Z,19.60
2023-11-21T15:25:33.584Z,20.80
2023-11-21T15:28:36.550Z,22.85
2023-11-21T15:31:40.103Z,15.18
2023-11-21T15:34:42.514Z,16.45
2023-11-21T15:37:46.280Z,17.67
2023-11-21T15:40:50.734Z,16.00
2023-11-21T15:43:53.033Z,15.98
2023-11-21T15:46:55.664Z,17.48
2023-11-21T15:49:57.960Z,13.07
2023-11-21T15:53:00.552Z,15.07
2023-11-21T15:56:05.418Z,18.17
2023-11-21T15:59:07.870Z,18.60
2023-11-21T16:02:11.863Z,17.17
2023-11-21T16:05:19.021Z,17.83
2023-11-21T16:08:21.479Z,15.90
2023-11-21T16:11:24.437Z,16.77
2023-11-21T16:14:30.797Z,25.45
2023-11-21T16:17:34.094Z,14.40
2023-11-21T16:20:36.605Z,18.60
2023-11-21T16:23:38.920Z,27.33
2023-11-21T16:26:44.557Z,23.17
2023-11-21T16:29:47.289Z,19.92
2023-11-21T16:32:49.604Z,21.52
2023-11-21T16:35:51.855Z,18.77
2023-11-21T16:38:55.130Z,19.77
2023-11-21T16:41:57.321Z,21.77
2023-11-21T16:44:59.546Z,16.90
2023-11-21T16:48:04.065Z,20.23
2023-11-21T16:51:06.298Z,24.77
2023-11-21T16:54:09.792Z,20.37
2023-11-21T16:57:13.213Z,19.98
2023-11-21T17:00:16.917Z,24.50
2023-11-21T17:03:21.509Z,20.23
2023-11-21T17:06:24.659Z,25.20
2023-11-21T17:09:26.944Z,28.40
2023-11-21T17:12:29.276Z,21.33
2023-11-21T17:15:31.526Z,25.63
2023-11-21T17:18:33.833Z,25.75
2023-11-21T17:21:37.437Z,29.50
2023-11-21T17:24:39.801Z,22.87
2023-11-21T17:27:42.130Z,21.33
2023-11-21T17:30:44.426Z,24.33
2023-11-21T17:33:47.460Z,22.95
2023-11-21T17:36:49.750Z,31.43
2023-11-21T17:39:52.053Z,33.33
2023-11-21T17:42:54.398Z,24.00
2023-11-21T17:45:57.498Z,28.17
2023-11-21T17:49:00.053Z,26.38
2023-11-21T17:52:02.256Z,25.17
2023-11-21T17:55:06.667Z,21.73
2023-11-21T17:58:10.451Z,23.75
2023-11-21T18:01:12.905Z,34.55
2023-11-21T18:04:15.409Z,23.17
2023-11-21T18:07:18.733Z,16.53
2023-11-21T18:10:21.140Z,28.57
2023-11-21T18:13:23.446Z,14.93
2023-11-21T18:16:25.829Z,15.20
2023-11-21T18:19:28.697Z,15.02
2023-11-21T18:22:30.974Z,13.77
2023-11-21T18:25:33.238Z,13.07
2023-11-21T18:28:37.363Z,18.42
2023-11-21T18:31:42.695Z,14.48
2023-11-21T18:34:47.116Z,16.08
2023-11-21T18:37:49.457Z,17.37
2023-11-21T18:40:52.467Z,13.27
2023-11-21T18:43:55.257Z,15.65
2023-11-21T18:46:58.200Z,13.90
2023-11-21T18:50:00.635Z,14.63
2023-11-21T18:53:03.226Z,15.50
2023-11-21T18:56:05.874Z,11.17
2023-11-21T18:59:11.344Z,11.80
2023-11-21T19:02:15.250Z,12.75
2023-11-21T19:05:18.113Z,15.30
2023-11-21T19:08:20.500Z,12.00
2023-11-21T19:11:23.284Z,16.70
2023-11-21T19:14:25.771Z,15.73
2023-11-21T19:17:28.416Z,12.65
2023-11-21T19:20:30.671Z,16.58
2023-11-21T19:23:32.956Z,15.07
2023-11-21T19:26:37.858Z,18.47
2023-11-21T19:29:40.431Z,20.88
2023-11-21T19:32:44.559Z,19.08
2023-11-21T19:35:47.092Z,17.65
2023-11-21T19:38:49.593Z,13.90
2023-11-21T19:41:52.075Z,20.23
2023-11-21T19:44:54.543Z,18.48
2023-11-21T19:47:57.111Z,19.40
2023-11-21T19:50:59.397Z,16.23
2023-11-21T19:54:02.286Z,16.57
2023-11-21T19:57:05.876Z,13.47
2023-11-21T20:00:12.548Z,15.50
2023-11-21T20:03:15.733Z,12.05
2023-11-21T20:06:18.296Z,15.68
2023-11-21T20:09:20.709Z,16.27
2023-11-21T20:12:22.914Z,17.40
2023-11-21T20:15:26.946Z,12.63
2023-11-21T20:18:31.833Z,12.73
2023-11-21T20:21:34.987Z,12.93
2023-11-21T20:24:37.235Z,9.90
2023-11-21T20:27:40.524Z,8.80
2023-11-21T20:30:42.764Z,12.60
2023-11-21T20:33:45.323Z,11.95
2023-11-21T20:36:48.955Z,15.35
2023-11-21T20:39:51.821Z,7.37
2023-11-21T20:42:55.455Z,16.37
2023-11-21T20:45:58.548Z,11.43
2023-11-21T20:49:01.287Z,9.63
2023-11-21T20:52:04.011Z,12.35
2023-11-21T20:55:06.763Z,9.73
2023-11-21T20:58:11.943Z,12.37
2023-11-21T21:01:15.182Z,9.95
2023-11-21T21:04:19.277Z,9.68
2023-11-21T21:07:21.975Z,7.88
2023-11-21T21:10:24.325Z,9.83
2023-11-21T21:13:26.593Z,8.77
2023-11-21T21:16:29.345Z,9.43
2023-11-21T21:19:33.828Z,9.57
2023-11-21T21:22:36.187Z,9.18
2023-11-21T21:25:38.808Z,8.27
2023-11-21T21:28:41.838Z,8.57
2023-11-21T21:31:44.120Z,9.43
2023-11-21T21:34:46.398Z,9.32
2023-11-21T21:37:48.645Z,9.13
2023-11-21T21:40:53.145Z,9.77
2023-11-21T21:43:55.631Z,9.43
2023-11-21T21:46:58.066Z,10.95
2023-11-21T21:50:00.527Z,13.75
2023-11-21T21:53:03.092Z,10.63
2023-11-21T21:56:05.483Z,12.67
2023-11-21T21:59:08.831Z,11.80
2023-11-21T22:02:11.348Z,11.40
2023-11-21T22:05:13.751Z,7.97
2023-11-21T22:08:16.044Z,9.40
2023-11-21T22:11:18.286Z,6.70
2023-11-21T22:14:20.704Z,11.63
2023-11-21T22:17:24.299Z,10.85
2023-11-21T22:20:26.693Z,9.35
2023-11-21T22:23:28.976Z,7.90
2023-11-21T22:26:31.286Z,11.93
2023-11-21T22:29:33.636Z,10.40
2023-11-21T22:32:35.876Z,8.38
2023-11-21T22:35:39.863Z,8.48
2023-11-21T22:38:42.762Z,11.93
2023-11-21T22:41:45.028Z,11.63
2023-11-21T22:44:47.370Z,11.37
2023-11-21T22:47:49.728Z,11.90
2023-11-21T22:50:52.111Z,12.25
2023-11-21T22:53:54.617Z,14.38
2023-11-21T22:56:56.926Z,11.57
2023-11-21T22:59:59.183Z,11.80
2023-11-21T23:03:01.775Z,13.50
2023-11-21T23:06:04.420Z,10.65
2023-11-21T23:09:06.616Z,11.27
2023-11-21T23:12:08.951Z,11.83
2023-11-21T23:15:11.241Z,14.27
2023-11-21T23:18:13.822Z,12.95
2023-11-21T23:21:16.243Z,11.15
2023-11-21T23:24:21.638Z,14.25
2023-11-21T23:27:24.071Z,13.90
2023-11-21T23:30:27.420Z,11.07
2023-11-21T23:33:31.996Z,14.15
2023-11-21T23:36:34.393Z,15.45
2023-11-21T23:39:37.570Z,15.40
2023-11-21T23:42:39.861Z,11.90
2023-11-21T23:45:42.282Z,13.47
2023-11-21T23:48:44.566Z,8.77
2023-11-21T23:51:47.255Z,10.38
2023-11-21T23:54:49.608Z,15.20
2023-11-21T23:57:51.877Z,8.60
